Nordhorn

DE-1063 · 下萨克森, 德国

使用的METAR站距离机场54 km。
罗盘
风向 的 风向 的 风向 到 风向 250° 直升机
风: 6 kt, 2 beaufort
0 ft 1.000 2.000 3.000 4.000 5.000
Cloud Cloud
FEW 3.000
Cloud Cloud Cloud Cloud
SCT 3.800
METAR EDDG 230920Z AUTO 25006KT 210V300 9999 FEW030 SCT038 21/13 Q1019 NOSIG

METAR Nordhorn - DE-1063

Nordhorn是,德国中的直升机场。 该机场位于纬度52,43500和经度7,05810。 这个机场没有ICAO代码,我们使用DE-1063作为参考。 机场在Langen FIR中。

该航空气象观测是针对Münster Osnabrück Airport在2024年6月23日 11:20, 当地时间进行的。

机场观察

风向为250°,速度为6 kt。 风向在210°和300°之间变化。

可见度为10 km 或者更多。

有几云在3.000 ft的高度 和 疏云,零星散落的云朵在3.800 ft的高度。 没有观察到天花板。

温度和风寒是21 °C。 露点为13 °C,相对湿度为60%。 海平面上的气压为1019 hPa (QNH)。

白天

今天,太阳从05:09升起,在21:58降落。 这适用于Nordhorn,世界夏令时可能有所不同。 当地时间与世界标准时间之间的时差为+2 小时。 夏令时目前正在进行中。

公司介绍

我们没有关于这个机场的公司信息。

体会

到Vliegles.nl去找飞行课程,跳伞和其他飞行体验。 浏览页面,了解Nordhorn附近所有可用的活动。 你也可以使用搜索功能来寻找你所在地附近的特定飞行课程、跳伞或其他飞行体验。

乌云

3.000 ft FEW 几云
3.800 ft SCT 疏云,零星散落的云朵

温度 & 天气

温度 21 °C
露点 13 °C
相对湿度 60%
Kp-index 2 (0-9)

白天

日出
05:08
中午
13:31
日落
21:54 (10:10)

小工具

你想在你的网站上有一个关于Nordhorn的当前航空天气(METAR)的小部件吗?

显示HTML代码
报告变更